sensor_id;sensor_type;location;lat;lon;timestamp;temperature;humidity
29295;DHT22;16305;48.566;8.846;2023-02-11T00:01:11;-2.40;99.90
29295;DHT22;16305;48.566;8.846;2023-02-11T00:03:38;-2.40;99.90
29295;DHT22;16305;48.566;8.846;2023-02-11T00:06:06;-2.30;99.90
29295;DHT22;16305;48.566;8.846;2023-02-11T00:08:35;-2.20;99.90
29295;DHT22;16305;48.566;8.846;2023-02-11T00:11:01;-2.40;99.90
29295;DHT22;16305;48.566;8.846;2023-02-11T00:13:26;-2.60;99.90
29295;DHT22;16305;48.566;8.846;2023-02-11T00:15:53;-2.70;99.90
29295;DHT22;16305;48.566;8.846;2023-02-11T00:18:19;-2.70;99.90
29295;DHT22;16305;48.566;8.846;2023-02-11T00:20:44;-2.70;99.90
29295;DHT22;16305;48.566;8.846;2023-02-11T00:23:10;-2.70;99.90
29295;DHT22;16305;48.566;8.846;2023-02-11T00:25:44;-2.70;99.90
29295;DHT22;16305;48.566;8.846;2023-02-11T00:28:10;-2.70;99.90
29295;DHT22;16305;48.566;8.846;2023-02-11T00:30:36;-2.70;99.90
29295;DHT22;16305;48.566;8.846;2023-02-11T00:33:03;-2.70;99.90
29295;DHT22;16305;48.566;8.846;2023-02-11T00:35:28;-2.80;99.90
29295;DHT22;16305;48.566;8.846;2023-02-11T00:37:55;-2.70;99.90
29295;DHT22;16305;48.566;8.846;2023-02-11T00:40:20;-2.70;99.90
29295;DHT22;16305;48.566;8.846;2023-02-11T00:42:46;-2.70;99.90
29295;DHT22;16305;48.566;8.846;2023-02-11T00:45:12;-2.70;99.90
29295;DHT22;16305;48.566;8.846;2023-02-11T00:47:37;-2.70;99.90
29295;DHT22;16305;48.566;8.846;2023-02-11T00:50:04;-2.70;99.90
29295;DHT22;16305;48.566;8.846;2023-02-11T00:52:31;-2.80;99.90
29295;DHT22;16305;48.566;8.846;2023-02-11T00:54:56;-2.80;99.90
29295;DHT22;16305;48.566;8.846;2023-02-11T00:57:22;-2.80;99.90
29295;DHT22;16305;48.566;8.846;2023-02-11T00:59:47;-2.80;99.90
29295;DHT22;16305;48.566;8.846;2023-02-11T01:02:13;-2.80;99.90
29295;DHT22;16305;48.566;8.846;2023-02-11T01:04:39;-2.80;99.90
29295;DHT22;16305;48.566;8.846;2023-02-11T01:07:04;-2.80;99.90
29295;DHT22;16305;48.566;8.846;2023-02-11T01:09:30;-2.90;99.90
29295;DHT22;16305;48.566;8.846;2023-02-11T01:11:55;-2.90;99.90
29295;DHT22;16305;48.566;8.846;2023-02-11T01:14:21;-2.90;99.90
29295;DHT22;16305;48.566;8.846;2023-02-11T01:16:46;-2.90;99.90
29295;DHT22;16305;48.566;8.846;2023-02-11T01:19:12;-2.90;99.90
29295;DHT22;16305;48.566;8.846;2023-02-11T01:21:38;-2.90;99.90
29295;DHT22;16305;48.566;8.846;2023-02-11T01:24:03;-2.90;99.90
29295;DHT22;16305;48.566;8.846;2023-02-11T01:26:29;-2.90;99.90
29295;DHT22;16305;48.566;8.846;2023-02-11T01:28:54;-2.90;99.90
29295;DHT22;16305;48.566;8.846;2023-02-11T01:31:20;-2.80;99.90
29295;DHT22;16305;48.566;8.846;2023-02-11T01:33:45;-2.70;99.90
29295;DHT22;16305;48.566;8.846;2023-02-11T01:36:11;-2.70;99.90
29295;DHT22;16305;48.566;8.846;2023-02-11T01:38:37;-2.70;99.90
29295;DHT22;16305;48.566;8.846;2023-02-11T01:41:08;-2.70;99.90
29295;DHT22;16305;48.566;8.846;2023-02-11T01:43:37;-2.80;99.90
29295;DHT22;16305;48.566;8.846;2023-02-11T01:46:33;-2.90;99.90
29295;DHT22;16305;48.566;8.846;2023-02-11T01:49:11;-3.00;99.90
29295;DHT22;16305;48.566;8.846;2023-02-11T01:51:46;-3.00;99.90
29295;DHT22;16305;48.566;8.846;2023-02-11T01:54:15;-3.00;99.90
29295;DHT22;16305;48.566;8.846;2023-02-11T01:57:01;-3.00;99.90
29295;DHT22;16305;48.566;8.846;2023-02-11T02:02:14;-2.90;99.90
29295;DHT22;16305;48.566;8.846;2023-02-11T02:04:48;-2.90;99.90
29295;DHT22;16305;48.566;8.846;2023-02-11T02:07:44;-2.90;99.90
29295;DHT22;16305;48.566;8.846;2023-02-11T02:10:13;-2.90;99.90
29295;DHT22;16305;48.566;8.846;2023-02-11T02:12:39;-2.90;99.90
29295;DHT22;16305;48.566;8.846;2023-02-11T02:15:32;-2.90;99.90
29295;DHT22;16305;48.566;8.846;2023-02-11T02:21:29;-2.60;99.90
29295;DHT22;16305;48.566;8.846;2023-02-11T02:24:30;-2.70;99.90
29295;DHT22;16305;48.566;8.846;2023-02-11T02:38:07;-2.80;99.90
29295;DHT22;16305;48.566;8.846;2023-02-11T02:40:44;-2.80;99.90
29295;DHT22;16305;48.566;8.846;2023-02-11T02:43:11;-2.90;99.90
29295;DHT22;16305;48.566;8.846;2023-02-11T02:45:38;-2.90;99.90
29295;DHT22;16305;48.566;8.846;2023-02-11T02:48:03;-2.90;99.90
29295;DHT22;16305;48.566;8.846;2023-02-11T02:50:33;-2.90;99.90
29295;DHT22;16305;48.566;8.846;2023-02-11T02:53:20;-2.90;99.90
29295;DHT22;16305;48.566;8.846;2023-02-11T02:56:20;-2.90;99.90
29295;DHT22;16305;48.566;8.846;2023-02-11T03:02:17;-2.90;99.90
29295;DHT22;16305;48.566;8.846;2023-02-11T03:04:54;-2.90;99.90
29295;DHT22;16305;48.566;8.846;2023-02-11T03:07:50;-2.80;99.90
29295;DHT22;16305;48.566;8.846;2023-02-11T03:10:21;-2.80;99.90
29295;DHT22;16305;48.566;8.846;2023-02-11T03:12:49;-2.80;99.90
29295;DHT22;16305;48.566;8.846;2023-02-11T03:15:16;-2.90;99.90
29295;DHT22;16305;48.566;8.846;2023-02-11T03:17:46;-2.90;99.90
29295;DHT22;16305;48.566;8.846;2023-02-11T03:20:15;-2.80;99.90
29295;DHT22;16305;48.566;8.846;2023-02-11T03:22:54;-2.70;99.90
29295;DHT22;16305;48.566;8.846;2023-02-11T03:25:27;-2.70;99.90
29295;DHT22;16305;48.566;8.846;2023-02-11T03:28:08;-2.80;99.90
29295;DHT22;16305;48.566;8.846;2023-02-11T03:30:44;-2.80;99.90
29295;DHT22;16305;48.566;8.846;2023-02-11T03:33:13;-3.00;99.90
29295;DHT22;16305;48.566;8.846;2023-02-11T03:35:50;-3.00;99.90
29295;DHT22;16305;48.566;8.846;2023-02-11T03:38:34;-3.10;99.90
29295;DHT22;16305;48.566;8.846;2023-02-11T03:41:04;-3.20;99.90
29295;DHT22;16305;48.566;8.846;2023-02-11T03:43:54;-3.00;99.90
29295;DHT22;16305;48.566;8.846;2023-02-11T03:46:27;-3.00;99.90
29295;DHT22;16305;48.566;8.846;2023-02-11T03:48:57;-3.10;99.90
29295;DHT22;16305;48.566;8.846;2023-02-11T03:51:26;-3.10;99.90
29295;DHT22;16305;48.566;8.846;2023-02-11T03:53:54;-3.10;99.90
29295;DHT22;16305;48.566;8.846;2023-02-11T03:56:25;-3.10;99.90
29295;DHT22;16305;48.566;8.846;2023-02-11T03:58:51;-3.00;99.90
29295;DHT22;16305;48.566;8.846;2023-02-11T04:01:16;-3.00;99.90
29295;DHT22;16305;48.566;8.846;2023-02-11T04:03:45;-3.10;99.90
29295;DHT22;16305;48.566;8.846;2023-02-11T04:06:10;-3.10;99.90
29295;DHT22;16305;48.566;8.846;2023-02-11T04:08:36;-3.20;99.90
29295;DHT22;16305;48.566;8.846;2023-02-11T04:11:01;-3.30;99.90
29295;DHT22;16305;48.566;8.846;2023-02-11T04:13:27;-3.40;99.90
29295;DHT22;16305;48.566;8.846;2023-02-11T04:15:53;-3.50;99.90
29295;DHT22;16305;48.566;8.846;2023-02-11T04:18:18;-3.60;99.90
29295;DHT22;16305;48.566;8.846;2023-02-11T04:20:44;-3.50;99.90
29295;DHT22;16305;48.566;8.846;2023-02-11T04:23:09;-3.40;99.90
29295;DHT22;16305;48.566;8.846;2023-02-11T04:25:35;-3.30;99.90
29295;DHT22;16305;48.566;8.846;2023-02-11T04:28:01;-3.20;99.90
29295;DHT22;16305;48.566;8.846;2023-02-11T04:30:26;-3.30;99.90
29295;DHT22;16305;48.566;8.846;2023-02-11T04:32:52;-3.30;99.90
29295;DHT22;16305;48.566;8.846;2023-02-11T04:35:18;-3.20;99.90
29295;DHT22;16305;48.566;8.846;2023-02-11T04:37:44;-3.20;99.90
29295;DHT22;16305;48.566;8.846;2023-02-11T04:40:10;-3.10;99.90
29295;DHT22;16305;48.566;8.846;2023-02-11T04:42:35;-3.00;99.90
29295;DHT22;16305;48.566;8.846;2023-02-11T04:45:01;-2.90;99.90
29295;DHT22;16305;48.566;8.846;2023-02-11T04:47:26;-2.90;99.90
29295;DHT22;16305;48.566;8.846;2023-02-11T04:49:52;-2.80;99.90
29295;DHT22;16305;48.566;8.846;2023-02-11T04:52:17;-2.90;99.90
29295;DHT22;16305;48.566;8.846;2023-02-11T04:54:43;-2.90;99.90
29295;DHT22;16305;48.566;8.846;2023-02-11T04:57:08;-2.80;99.90
29295;DHT22;16305;48.566;8.846;2023-02-11T04:59:34;-2.80;99.90
29295;DHT22;16305;48.566;8.846;2023-02-11T05:01:59;-2.60;99.90
29295;DHT22;16305;48.566;8.846;2023-02-11T05:04:25;-2.60;99.90
29295;DHT22;16305;48.566;8.846;2023-02-11T05:06:50;-2.70;99.90
29295;DHT22;16305;48.566;8.846;2023-02-11T05:09:16;-2.60;99.90
29295;DHT22;16305;48.566;8.846;2023-02-11T05:11:42;-2.70;99.90
29295;DHT22;16305;48.566;8.846;2023-02-11T05:14:07;-2.70;99.90
29295;DHT22;16305;48.566;8.846;2023-02-11T05:16:33;-2.80;99.90
29295;DHT22;16305;48.566;8.846;2023-02-11T05:18:59;-2.70;99.90
29295;DHT22;16305;48.566;8.846;2023-02-11T05:21:24;-2.70;99.90
29295;DHT22;16305;48.566;8.846;2023-02-11T05:23:50;-2.70;99.90
29295;DHT22;16305;48.566;8.846;2023-02-11T05:26:16;-2.70;99.90
29295;DHT22;16305;48.566;8.846;2023-02-11T05:28:42;-2.40;99.90
29295;DHT22;16305;48.566;8.846;2023-02-11T05:31:09;-2.60;99.90
29295;DHT22;16305;48.566;8.846;2023-02-11T05:33:34;-2.60;99.90
29295;DHT22;16305;48.566;8.846;2023-02-11T05:36:03;-2.40;99.90
29295;DHT22;16305;48.566;8.846;2023-02-11T05:38:28;-2.50;99.90
29295;DHT22;16305;48.566;8.846;2023-02-11T05:40:55;-2.60;99.90
29295;DHT22;16305;48.566;8.846;2023-02-11T05:43:20;-2.60;99.90
29295;DHT22;16305;48.566;8.846;2023-02-11T05:45:46;-2.70;99.90
29295;DHT22;16305;48.566;8.846;2023-02-11T05:48:12;-2.70;99.90
29295;DHT22;16305;48.566;8.846;2023-02-11T05:50:37;-2.80;99.90
29295;DHT22;16305;48.566;8.846;2023-02-11T05:53:03;-2.70;99.90
29295;DHT22;16305;48.566;8.846;2023-02-11T05:55:30;-2.60;99.90
29295;DHT22;16305;48.566;8.846;2023-02-11T05:57:55;-2.60;99.90
29295;DHT22;16305;48.566;8.846;2023-02-11T06:00:21;-2.60;99.90
29295;DHT22;16305;48.566;8.846;2023-02-11T06:02:46;-2.60;99.90
29295;DHT22;16305;48.566;8.846;2023-02-11T06:05:12;-2.70;99.90
29295;DHT22;16305;48.566;8.846;2023-02-11T06:07:37;-2.70;99.90
29295;DHT22;16305;48.566;8.846;2023-02-11T06:10:03;-2.70;99.90
29295;DHT22;16305;48.566;8.846;2023-02-11T06:12:29;-2.60;99.90
29295;DHT22;16305;48.566;8.846;2023-02-11T06:14:54;-2.50;99.90
29295;DHT22;16305;48.566;8.846;2023-02-11T06:17:20;-2.50;99.90
29295;DHT22;16305;48.566;8.846;2023-02-11T06:19:45;-2.40;99.90
29295;DHT22;16305;48.566;8.846;2023-02-11T06:22:11;-2.30;99.90
29295;DHT22;16305;48.566;8.846;2023-02-11T06:24:36;-2.20;99.90
29295;DHT22;16305;48.566;8.846;2023-02-11T06:27:03;-2.10;99.90
29295;DHT22;16305;48.566;8.846;2023-02-11T06:29:29;-2.10;99.90
29295;DHT22;16305;48.566;8.846;2023-02-11T06:31:54;-1.90;99.90
29295;DHT22;16305;48.566;8.846;2023-02-11T06:34:20;-1.80;99.90
29295;DHT22;16305;48.566;8.846;2023-02-11T06:36:45;-1.70;99.90
29295;DHT22;16305;48.566;8.846;2023-02-11T06:39:12;-1.80;99.90
29295;DHT22;16305;48.566;8.846;2023-02-11T06:41:38;-1.90;99.90
29295;DHT22;16305;48.566;8.846;2023-02-11T06:44:03;-2.00;99.90
29295;DHT22;16305;48.566;8.846;2023-02-11T06:46:29;-2.20;99.90
29295;DHT22;16305;48.566;8.846;2023-02-11T06:48:55;-2.20;99.90
29295;DHT22;16305;48.566;8.846;2023-02-11T06:51:21;-2.20;99.90
29295;DHT22;16305;48.566;8.846;2023-02-11T06:53:46;-2.20;99.90
29295;DHT22;16305;48.566;8.846;2023-02-11T06:56:19;-2.20;99.90
29295;DHT22;16305;48.566;8.846;2023-02-11T06:58:45;-2.20;99.90
29295;DHT22;16305;48.566;8.846;2023-02-11T07:01:14;-2.30;99.90
29295;DHT22;16305;48.566;8.846;2023-02-11T07:03:41;-2.50;99.90
29295;DHT22;16305;48.566;8.846;2023-02-11T07:06:11;-2.30;99.90
29295;DHT22;16305;48.566;8.846;2023-02-11T07:08:37;-2.30;99.90
29295;DHT22;16305;48.566;8.846;2023-02-11T07:11:30;-2.30;99.90
29295;DHT22;16305;48.566;8.846;2023-02-11T07:14:01;-2.30;99.90
29295;DHT22;16305;48.566;8.846;2023-02-11T07:16:27;-2.20;99.90
29295;DHT22;16305;48.566;8.846;2023-02-11T07:18:52;-2.10;99.90
29295;DHT22;16305;48.566;8.846;2023-02-11T07:21:21;-2.10;99.90
29295;DHT22;16305;48.566;8.846;2023-02-11T07:23:47;-1.80;99.90
29295;DHT22;16305;48.566;8.846;2023-02-11T07:26:15;-1.60;99.90
29295;DHT22;16305;48.566;8.846;2023-02-11T07:31:13;-1.50;99.90
29295;DHT22;16305;48.566;8.846;2023-02-11T07:33:39;-1.50;99.90
29295;DHT22;16305;48.566;8.846;2023-02-11T07:36:06;-1.50;99.90
29295;DHT22;16305;48.566;8.846;2023-02-11T07:38:33;-1.60;99.90
29295;DHT22;16305;48.566;8.846;2023-02-11T07:41:03;-1.70;99.90
29295;DHT22;16305;48.566;8.846;2023-02-11T07:43:30;-1.80;99.90
29295;DHT22;16305;48.566;8.846;2023-02-11T07:45:55;-1.90;99.90
29295;DHT22;16305;48.566;8.846;2023-02-11T07:48:21;-1.90;99.90
29295;DHT22;16305;48.566;8.846;2023-02-11T07:50:47;-1.80;99.90
29295;DHT22;16305;48.566;8.846;2023-02-11T07:53:12;-1.70;99.90
29295;DHT22;16305;48.566;8.846;2023-02-11T07:55:38;-1.50;99.90
29295;DHT22;16305;48.566;8.846;2023-02-11T07:58:03;-1.30;99.90
29295;DHT22;16305;48.566;8.846;2023-02-11T08:00:29;-1.00;99.90
29295;DHT22;16305;48.566;8.846;2023-02-11T08:02:56;-1.00;99.90
29295;DHT22;16305;48.566;8.846;2023-02-11T08:05:21;-0.90;99.90
29295;DHT22;16305;48.566;8.846;2023-02-11T08:07:51;-0.90;99.90
29295;DHT22;16305;48.566;8.846;2023-02-11T08:10:16;-0.90;99.90
29295;DHT22;16305;48.566;8.846;2023-02-11T08:12:42;-0.90;99.90
29295;DHT22;16305;48.566;8.846;2023-02-11T08:15:08;-0.90;99.90
29295;DHT22;16305;48.566;8.846;2023-02-11T08:17:35;-0.90;99.90
29295;DHT22;16305;48.566;8.846;2023-02-11T08:20:00;-0.80;99.90
29295;DHT22;16305;48.566;8.846;2023-02-11T08:22:26;-1.00;99.90
29295;DHT22;16305;48.566;8.846;2023-02-11T08:24:52;-1.10;99.90
29295;DHT22;16305;48.566;8.846;2023-02-11T08:27:17;-1.00;99.90
29295;DHT22;16305;48.566;8.846;2023-02-11T08:29:42;-1.00;99.90
29295;DHT22;16305;48.566;8.846;2023-02-11T08:32:08;-1.00;99.90
29295;DHT22;16305;48.566;8.846;2023-02-11T08:34:34;-0.80;99.90
29295;DHT22;16305;48.566;8.846;2023-02-11T08:37:01;-0.70;99.90
29295;DHT22;16305;48.566;8.846;2023-02-11T08:39:26;-0.60;99.90
29295;DHT22;16305;48.566;8.846;2023-02-11T08:41:53;-0.40;99.90
29295;DHT22;16305;48.566;8.846;2023-02-11T08:44:21;-0.40;99.90
29295;DHT22;16305;48.566;8.846;2023-02-11T08:46:47;-0.20;99.90
29295;DHT22;16305;48.566;8.846;2023-02-11T08:49:14;-0.10;99.90
29295;DHT22;16305;48.566;8.846;2023-02-11T08:51:39;0.00;99.90
29295;DHT22;16305;48.566;8.846;2023-02-11T08:54:05;0.00;99.90
29295;DHT22;16305;48.566;8.846;2023-02-11T08:56:34;0.10;99.90
29295;DHT22;16305;48.566;8.846;2023-02-11T08:58:59;0.40;99.90
29295;DHT22;16305;48.566;8.846;2023-02-11T09:01:27;0.40;99.90
29295;DHT22;16305;48.566;8.846;2023-02-11T09:03:53;0.40;99.90
29295;DHT22;16305;48.566;8.846;2023-02-11T09:06:20;0.50;99.90
29295;DHT22;16305;48.566;8.846;2023-02-11T09:08:48;0.70;99.90
29295;DHT22;16305;48.566;8.846;2023-02-11T09:11:15;0.90;99.90
29295;DHT22;16305;48.566;8.846;2023-02-11T09:13:42;1.00;99.90
29295;DHT22;16305;48.566;8.846;2023-02-11T09:16:18;1.10;99.90
29295;DHT22;16305;48.566;8.846;2023-02-11T09:18:44;1.10;99.90
29295;DHT22;16305;48.566;8.846;2023-02-11T09:21:10;1.10;99.90
29295;DHT22;16305;48.566;8.846;2023-02-11T09:23:36;1.10;99.90
29295;DHT22;16305;48.566;8.846;2023-02-11T09:26:10;1.20;99.90
29295;DHT22;16305;48.566;8.846;2023-02-11T09:28:36;1.30;99.90
29295;DHT22;16305;48.566;8.846;2023-02-11T09:31:06;1.30;99.90
29295;DHT22;16305;48.566;8.846;2023-02-11T09:33:32;1.40;99.90
29295;DHT22;16305;48.566;8.846;2023-02-11T09:36:02;1.50;99.90
29295;DHT22;16305;48.566;8.846;2023-02-11T09:38:28;1.60;99.90
29295;DHT22;16305;48.566;8.846;2023-02-11T09:40:54;1.60;99.90
29295;DHT22;16305;48.566;8.846;2023-02-11T09:43:22;1.80;99.90
29295;DHT22;16305;48.566;8.846;2023-02-11T09:45:48;1.80;99.90
29295;DHT22;16305;48.566;8.846;2023-02-11T09:48:19;1.90;99.90
29295;DHT22;16305;48.566;8.846;2023-02-11T09:50:51;2.10;99.90
29295;DHT22;16305;48.566;8.846;2023-02-11T09:55:47;2.50;99.90
29295;DHT22;16305;48.566;8.846;2023-02-11T09:58:33;2.40;99.90
29295;DHT22;16305;48.566;8.846;2023-02-11T10:04:06;2.40;99.90
29295;DHT22;16305;48.566;8.846;2023-02-11T10:06:52;2.40;99.90
29295;DHT22;16305;48.566;8.846;2023-02-11T10:09:36;2.30;99.90
29295;DHT22;16305;48.566;8.846;2023-02-11T10:15:11;2.10;99.90
29295;DHT22;16305;48.566;8.846;2023-02-11T10:22:55;2.40;99.90
29295;DHT22;16305;48.566;8.846;2023-02-11T10:25:26;2.50;99.90
29295;DHT22;16305;48.566;8.846;2023-02-11T10:27:54;2.60;99.90
29295;DHT22;16305;48.566;8.846;2023-02-11T10:30:28;2.70;99.90
29295;DHT22;16305;48.566;8.846;2023-02-11T10:33:12;2.80;99.90
29295;DHT22;16305;48.566;8.846;2023-02-11T10:35:39;2.90;99.90
29295;DHT22;16305;48.566;8.846;2023-02-11T10:38:09;3.10;99.90
29295;DHT22;16305;48.566;8.846;2023-02-11T10:40:34;3.30;99.90
29295;DHT22;16305;48.566;8.846;2023-02-11T10:43:06;3.40;99.90
29295;DHT22;16305;48.566;8.846;2023-02-11T10:45:49;3.60;99.90
29295;DHT22;16305;48.566;8.846;2023-02-11T10:51:16;3.70;99.90
29295;DHT22;16305;48.566;8.846;2023-02-11T10:53:43;3.80;99.90
29295;DHT22;16305;48.566;8.846;2023-02-11T10:56:20;4.10;99.90
29295;DHT22;16305;48.566;8.846;2023-02-11T10:59:01;4.10;99.90
29295;DHT22;16305;48.566;8.846;2023-02-11T11:02:20;4.10;99.90
29295;DHT22;16305;48.566;8.846;2023-02-11T11:04:47;4.30;99.90
29295;DHT22;16305;48.566;8.846;2023-02-11T11:07:23;4.10;99.90
29295;DHT22;16305;48.566;8.846;2023-02-11T11:10:35;4.20;99.90
29295;DHT22;16305;48.566;8.846;2023-02-11T11:17:34;4.50;99.90
29295;DHT22;16305;48.566;8.846;2023-02-11T11:20:28;4.60;99.90
29295;DHT22;16305;48.566;8.846;2023-02-11T11:23:09;4.90;99.90
29295;DHT22;16305;48.566;8.846;2023-02-11T11:25:38;5.10;99.90
29295;DHT22;16305;48.566;8.846;2023-02-11T11:28:05;5.30;99.90
29295;DHT22;16305;48.566;8.846;2023-02-11T11:30:42;5.30;99.90
29295;DHT22;16305;48.566;8.846;2023-02-11T11:33:40;5.40;99.90
29295;DHT22;16305;48.566;8.846;2023-02-11T11:36:09;5.60;99.90
29295;DHT22;16305;48.566;8.846;2023-02-11T11:38:37;5.60;99.90
29295;DHT22;16305;48.566;8.846;2023-02-11T11:44:02;5.90;99.90
29295;DHT22;16305;48.566;8.846;2023-02-11T11:46:38;6.00;99.90
29295;DHT22;16305;48.566;8.846;2023-02-11T11:49:16;6.20;99.90
29295;DHT22;16305;48.566;8.846;2023-02-11T11:54:26;9.70;99.90
29295;DHT22;16305;48.566;8.846;2023-02-11T11:56:57;11.00;99.90
29295;DHT22;16305;48.566;8.846;2023-02-11T11:59:24;13.80;99.90
29295;DHT22;16305;48.566;8.846;2023-02-11T12:05:05;18.00;99.90
29295;DHT22;16305;48.566;8.846;2023-02-11T12:07:50;16.10;99.90
29295;DHT22;16305;48.566;8.846;2023-02-11T12:10:51;17.90;99.90
29295;DHT22;16305;48.566;8.846;2023-02-11T12:16:11;19.00;99.90
29295;DHT22;16305;48.566;8.846;2023-02-11T12:24:28;18.00;99.90
29295;DHT22;16305;48.566;8.846;2023-02-11T12:27:07;20.20;99.90
29295;DHT22;16305;48.566;8.846;2023-02-11T12:40:59;22.00;98.10
29295;DHT22;16305;48.566;8.846;2023-02-11T12:43:39;21.20;97.90
29295;DHT22;16305;48.566;8.846;2023-02-11T12:51:50;20.80;99.20
29295;DHT22;16305;48.566;8.846;2023-02-11T12:54:29;20.70;99.40
29295;DHT22;16305;48.566;8.846;2023-02-11T12:57:17;21.10;99.10
29295;DHT22;16305;48.566;8.846;2023-02-11T13:02:31;22.50;98.00
29295;DHT22;16305;48.566;8.846;2023-02-11T13:05:18;22.60;97.40
29295;DHT22;16305;48.566;8.846;2023-02-11T13:07:47;23.30;96.20
29295;DHT22;16305;48.566;8.846;2023-02-11T13:10:35;24.00;95.30
29295;DHT22;16305;48.566;8.846;2023-02-11T13:13:04;24.00;93.70
29295;DHT22;16305;48.566;8.846;2023-02-11T13:15:46;23.20;94.20
29295;DHT22;16305;48.566;8.846;2023-02-11T13:18:38;22.30;95.20
29295;DHT22;16305;48.566;8.846;2023-02-11T13:23:45;22.80;94.60
29295;DHT22;16305;48.566;8.846;2023-02-11T13:26:22;23.20;93.50
29295;DHT22;16305;48.566;8.846;2023-02-11T13:29:00;24.10;93.00
29295;DHT22;16305;48.566;8.846;2023-02-11T13:31:31;22.40;93.20
29295;DHT22;16305;48.566;8.846;2023-02-11T13:33:56;20.90;94.50
29295;DHT22;16305;48.566;8.846;2023-02-11T13:36:29;20.60;94.60
29295;DHT22;16305;48.566;8.846;2023-02-11T13:39:04;20.90;94.40
29295;DHT22;16305;48.566;8.846;2023-02-11T13:41:40;20.70;95.30
29295;DHT22;16305;48.566;8.846;2023-02-11T13:49:19;22.90;94.00
29295;DHT22;16305;48.566;8.846;2023-02-11T13:51:47;21.50;94.40
29295;DHT22;16305;48.566;8.846;2023-02-11T13:54:32;19.80;95.80
29295;DHT22;16305;48.566;8.846;2023-02-11T13:59:49;17.70;99.60
29295;DHT22;16305;48.566;8.846;2023-02-11T14:08:12;14.30;99.90
29295;DHT22;16305;48.566;8.846;2023-02-11T14:16:16;16.80;99.90
29295;DHT22;16305;48.566;8.846;2023-02-11T14:23:44;15.50;99.90
29295;DHT22;16305;48.566;8.846;2023-02-11T14:32:16;12.50;99.90
29295;DHT22;16305;48.566;8.846;2023-02-11T14:35:13;12.90;99.90
29295;DHT22;16305;48.566;8.846;2023-02-11T14:42:53;12.60;99.90
29295;DHT22;16305;48.566;8.846;2023-02-11T14:45:23;12.30;99.90
29295;DHT22;16305;48.566;8.846;2023-02-11T14:47:50;12.70;99.90
29295;DHT22;16305;48.566;8.846;2023-02-11T14:50:35;13.10;99.90
29295;DHT22;16305;48.566;8.846;2023-02-11T14:53:03;14.10;99.90
29295;DHT22;16305;48.566;8.846;2023-02-11T14:55:35;14.80;99.90
29295;DHT22;16305;48.566;8.846;2023-02-11T14:58:21;15.90;99.90
29295;DHT22;16305;48.566;8.846;2023-02-11T15:01:35;16.60;99.90
29295;DHT22;16305;48.566;8.846;2023-02-11T15:06:22;14.70;99.90
29295;DHT22;16305;48.566;8.846;2023-02-11T15:08:53;15.00;99.90
29295;DHT22;16305;48.566;8.846;2023-02-11T15:11:21;14.70;99.90
29295;DHT22;16305;48.566;8.846;2023-02-11T15:13:48;14.00;99.90
29295;DHT22;16305;48.566;8.846;2023-02-11T15:16:25;13.00;99.90
29295;DHT22;16305;48.566;8.846;2023-02-11T15:18:59;11.70;99.90
29295;DHT22;16305;48.566;8.846;2023-02-11T15:21:27;10.60;99.90
29295;DHT22;16305;48.566;8.846;2023-02-11T15:23:56;10.10;99.90
29295;DHT22;16305;48.566;8.846;2023-02-11T15:26:22;9.40;99.90
29295;DHT22;16305;48.566;8.846;2023-02-11T15:28:47;9.00;99.90
29295;DHT22;16305;48.566;8.846;2023-02-11T15:31:17;8.60;99.90
29295;DHT22;16305;48.566;8.846;2023-02-11T15:33:43;8.20;99.90
29295;DHT22;16305;48.566;8.846;2023-02-11T15:36:11;7.90;99.90
29295;DHT22;16305;48.566;8.846;2023-02-11T15:38:36;7.70;99.90
29295;DHT22;16305;48.566;8.846;2023-02-11T15:41:03;7.60;99.90
29295;DHT22;16305;48.566;8.846;2023-02-11T15:43:44;7.70;99.90
29295;DHT22;16305;48.566;8.846;2023-02-11T15:46:13;7.80;99.90
29295;DHT22;16305;48.566;8.846;2023-02-11T15:48:48;7.70;99.90
29295;DHT22;16305;48.566;8.846;2023-02-11T15:51:21;7.20;99.90
29295;DHT22;16305;48.566;8.846;2023-02-11T15:53:55;7.00;99.90
29295;DHT22;16305;48.566;8.846;2023-02-11T15:58:56;6.40;99.90
29295;DHT22;16305;48.566;8.846;2023-02-11T16:01:42;6.20;99.90
29295;DHT22;16305;48.566;8.846;2023-02-11T16:04:22;6.00;99.90
29295;DHT22;16305;48.566;8.846;2023-02-11T16:06:49;5.90;99.90
29295;DHT22;16305;48.566;8.846;2023-02-11T16:17:03;5.40;99.90
29295;DHT22;16305;48.566;8.846;2023-02-11T16:19:31;5.40;99.90
29295;DHT22;16305;48.566;8.846;2023-02-11T16:21:59;5.30;99.90
29295;DHT22;16305;48.566;8.846;2023-02-11T16:24:31;5.20;99.90
29295;DHT22;16305;48.566;8.846;2023-02-11T16:27:03;5.20;99.90
29295;DHT22;16305;48.566;8.846;2023-02-11T16:29:34;5.20;99.90
29295;DHT22;16305;48.566;8.846;2023-02-11T16:32:13;5.10;99.90
29295;DHT22;16305;48.566;8.846;2023-02-11T16:34:39;5.10;99.90
29295;DHT22;16305;48.566;8.846;2023-02-11T16:37:05;5.00;99.90
29295;DHT22;16305;48.566;8.846;2023-02-11T16:39:31;4.80;99.90
29295;DHT22;16305;48.566;8.846;2023-02-11T16:41:57;4.60;99.90
29295;DHT22;16305;48.566;8.846;2023-02-11T16:44:22;4.60;99.90
29295;DHT22;16305;48.566;8.846;2023-02-11T16:46:48;4.60;99.90
29295;DHT22;16305;48.566;8.846;2023-02-11T16:49:19;4.50;99.90
29295;DHT22;16305;48.566;8.846;2023-02-11T16:51:47;4.50;99.90
29295;DHT22;16305;48.566;8.846;2023-02-11T16:54:14;4.50;99.90
29295;DHT22;16305;48.566;8.846;2023-02-11T16:56:41;4.30;99.90
29295;DHT22;16305;48.566;8.846;2023-02-11T16:59:07;4.40;99.90
29295;DHT22;16305;48.566;8.846;2023-02-11T17:01:33;4.50;99.90
29295;DHT22;16305;48.566;8.846;2023-02-11T17:03:59;4.30;99.90
29295;DHT22;16305;48.566;8.846;2023-02-11T17:06:26;4.10;99.90
29295;DHT22;16305;48.566;8.846;2023-02-11T17:08:51;3.90;99.90
29295;DHT22;16305;48.566;8.846;2023-02-11T17:11:17;3.70;99.90
29295;DHT22;16305;48.566;8.846;2023-02-11T17:13:44;3.60;99.90
29295;DHT22;16305;48.566;8.846;2023-02-11T17:16:21;3.50;99.90
29295;DHT22;16305;48.566;8.846;2023-02-11T17:18:47;3.50;99.90
29295;DHT22;16305;48.566;8.846;2023-02-11T17:21:13;3.50;99.90
29295;DHT22;16305;48.566;8.846;2023-02-11T17:23:39;3.50;99.90
29295;DHT22;16305;48.566;8.846;2023-02-11T17:26:05;3.40;99.90
29295;DHT22;16305;48.566;8.846;2023-02-11T17:28:31;3.30;99.90
29295;DHT22;16305;48.566;8.846;2023-02-11T17:30:57;3.30;99.90
29295;DHT22;16305;48.566;8.846;2023-02-11T17:33:23;3.20;99.90
29295;DHT22;16305;48.566;8.846;2023-02-11T17:35:48;3.30;99.90
29295;DHT22;16305;48.566;8.846;2023-02-11T17:38:14;3.10;99.90
29295;DHT22;16305;48.566;8.846;2023-02-11T17:40:39;3.00;99.90
29295;DHT22;16305;48.566;8.846;2023-02-11T17:43:05;2.90;99.90
29295;DHT22;16305;48.566;8.846;2023-02-11T17:45:30;3.00;99.90
29295;DHT22;16305;48.566;8.846;2023-02-11T17:47:56;3.20;99.90
29295;DHT22;16305;48.566;8.846;2023-02-11T17:50:21;3.20;99.90
29295;DHT22;16305;48.566;8.846;2023-02-11T17:52:47;3.40;99.90
29295;DHT22;16305;48.566;8.846;2023-02-11T17:55:12;3.40;99.90
29295;DHT22;16305;48.566;8.846;2023-02-11T17:57:38;3.50;99.90
29295;DHT22;16305;48.566;8.846;2023-02-11T18:00:05;3.60;99.90
29295;DHT22;16305;48.566;8.846;2023-02-11T18:02:32;3.50;99.90
29295;DHT22;16305;48.566;8.846;2023-02-11T18:04:57;3.40;99.90